sensor_id;sensor_type;location;lat;lon;timestamp;temperature;humidity
41838;DHT22;27511;52.042;5.178;2022-08-03T00:01:26;24.40;99.90
41838;DHT22;27511;52.042;5.178;2022-08-03T00:03:52;24.40;99.90
41838;DHT22;27511;52.042;5.178;2022-08-03T00:06:17;24.40;99.90
41838;DHT22;27511;52.042;5.178;2022-08-03T00:08:43;24.40;99.90
41838;DHT22;27511;52.042;5.178;2022-08-03T00:11:08;24.30;99.90
41838;DHT22;27511;52.042;5.178;2022-08-03T00:13:34;24.40;99.90
41838;DHT22;27511;52.042;5.178;2022-08-03T00:15:59;24.30;99.90
41838;DHT22;27511;52.042;5.178;2022-08-03T00:18:25;24.40;99.90
41838;DHT22;27511;52.042;5.178;2022-08-03T00:20:50;24.40;99.90
41838;DHT22;27511;52.042;5.178;2022-08-03T00:23:16;24.30;99.90
41838;DHT22;27511;52.042;5.178;2022-08-03T00:25:41;24.30;99.90
41838;DHT22;27511;52.042;5.178;2022-08-03T00:28:07;24.30;99.90
41838;DHT22;27511;52.042;5.178;2022-08-03T00:30:33;24.30;99.90
41838;DHT22;27511;52.042;5.178;2022-08-03T00:32:59;24.20;99.90
41838;DHT22;27511;52.042;5.178;2022-08-03T00:35:26;24.20;99.90
41838;DHT22;27511;52.042;5.178;2022-08-03T00:37:51;24.20;99.90
41838;DHT22;27511;52.042;5.178;2022-08-03T00:40:18;24.20;99.90
41838;DHT22;27511;52.042;5.178;2022-08-03T00:45:15;24.10;99.90
41838;DHT22;27511;52.042;5.178;2022-08-03T00:47:41;24.10;99.90
41838;DHT22;27511;52.042;5.178;2022-08-03T00:50:06;24.10;99.90
41838;DHT22;27511;52.042;5.178;2022-08-03T00:52:33;24.10;99.90
41838;DHT22;27511;52.042;5.178;2022-08-03T00:55:00;24.10;99.90
41838;DHT22;27511;52.042;5.178;2022-08-03T00:57:26;24.00;99.90
41838;DHT22;27511;52.042;5.178;2022-08-03T00:59:53;24.00;99.90
41838;DHT22;27511;52.042;5.178;2022-08-03T01:02:19;23.90;99.90
41838;DHT22;27511;52.042;5.178;2022-08-03T01:04:44;24.00;99.90
41838;DHT22;27511;52.042;5.178;2022-08-03T01:07:23;23.90;99.90
41838;DHT22;27511;52.042;5.178;2022-08-03T01:10:02;23.90;99.90
41838;DHT22;27511;52.042;5.178;2022-08-03T01:12:51;23.90;99.90
41838;DHT22;27511;52.042;5.178;2022-08-03T01:20:55;23.80;99.90
41838;DHT22;27511;52.042;5.178;2022-08-03T01:32:00;23.70;99.90
41838;DHT22;27511;52.042;5.178;2022-08-03T01:34:42;23.70;99.90
41838;DHT22;27511;52.042;5.178;2022-08-03T01:37:09;23.60;99.90
41838;DHT22;27511;52.042;5.178;2022-08-03T01:39:38;23.70;99.90
41838;DHT22;27511;52.042;5.178;2022-08-03T01:42:06;23.60;99.90
41838;DHT22;27511;52.042;5.178;2022-08-03T01:44:39;23.70;99.90
41838;DHT22;27511;52.042;5.178;2022-08-03T01:47:06;23.60;99.90
41838;DHT22;27511;52.042;5.178;2022-08-03T01:49:36;23.70;99.90
41838;DHT22;27511;52.042;5.178;2022-08-03T01:52:04;23.60;99.90
41838;DHT22;27511;52.042;5.178;2022-08-03T01:54:31;23.70;99.90
41838;DHT22;27511;52.042;5.178;2022-08-03T01:56:59;23.60;99.90
41838;DHT22;27511;52.042;5.178;2022-08-03T01:59:25;23.70;99.90
41838;DHT22;27511;52.042;5.178;2022-08-03T02:01:52;23.60;99.90
41838;DHT22;27511;52.042;5.178;2022-08-03T02:04:19;23.60;99.90
41838;DHT22;27511;52.042;5.178;2022-08-03T02:06:47;23.50;99.90
41838;DHT22;27511;52.042;5.178;2022-08-03T02:09:14;23.50;99.90
41838;DHT22;27511;52.042;5.178;2022-08-03T02:11:42;23.50;99.90
41838;DHT22;27511;52.042;5.178;2022-08-03T02:14:09;23.50;99.90
41838;DHT22;27511;52.042;5.178;2022-08-03T02:16:35;23.50;99.90
41838;DHT22;27511;52.042;5.178;2022-08-03T02:19:03;23.50;99.90
41838;DHT22;27511;52.042;5.178;2022-08-03T02:21:32;23.40;99.90
41838;DHT22;27511;52.042;5.178;2022-08-03T02:24:00;23.50;99.90
41838;DHT22;27511;52.042;5.178;2022-08-03T02:26:28;23.40;99.90
41838;DHT22;27511;52.042;5.178;2022-08-03T02:28:55;23.40;99.90
41838;DHT22;27511;52.042;5.178;2022-08-03T02:31:23;23.40;99.90
41838;DHT22;27511;52.042;5.178;2022-08-03T02:33:53;23.40;99.90
41838;DHT22;27511;52.042;5.178;2022-08-03T02:36:24;23.40;99.90
41838;DHT22;27511;52.042;5.178;2022-08-03T02:38:52;23.50;99.90
41838;DHT22;27511;52.042;5.178;2022-08-03T02:41:22;23.50;99.90
41838;DHT22;27511;52.042;5.178;2022-08-03T02:43:52;23.40;99.90
41838;DHT22;27511;52.042;5.178;2022-08-03T02:46:19;23.40;99.90
41838;DHT22;27511;52.042;5.178;2022-08-03T02:48:47;23.40;99.90
41838;DHT22;27511;52.042;5.178;2022-08-03T02:51:15;23.40;99.90
41838;DHT22;27511;52.042;5.178;2022-08-03T02:53:44;23.40;99.90
41838;DHT22;27511;52.042;5.178;2022-08-03T02:56:10;23.30;99.90
41838;DHT22;27511;52.042;5.178;2022-08-03T02:58:38;23.30;99.90
41838;DHT22;27511;52.042;5.178;2022-08-03T03:01:06;23.30;99.90
41838;DHT22;27511;52.042;5.178;2022-08-03T03:03:32;23.30;99.90
41838;DHT22;27511;52.042;5.178;2022-08-03T03:05:58;23.20;99.90
41838;DHT22;27511;52.042;5.178;2022-08-03T03:08:25;23.20;99.90
41838;DHT22;27511;52.042;5.178;2022-08-03T03:10:52;23.20;99.90
41838;DHT22;27511;52.042;5.178;2022-08-03T03:13:19;23.20;99.90
41838;DHT22;27511;52.042;5.178;2022-08-03T03:15:46;23.20;99.90
41838;DHT22;27511;52.042;5.178;2022-08-03T03:18:13;23.20;99.90
41838;DHT22;27511;52.042;5.178;2022-08-03T03:20:39;23.10;99.90
41838;DHT22;27511;52.042;5.178;2022-08-03T03:23:06;23.10;99.90
41838;DHT22;27511;52.042;5.178;2022-08-03T03:25:33;23.20;99.90
41838;DHT22;27511;52.042;5.178;2022-08-03T03:28:00;23.10;99.90
41838;DHT22;27511;52.042;5.178;2022-08-03T03:30:27;23.10;99.90
41838;DHT22;27511;52.042;5.178;2022-08-03T03:32:53;23.10;99.90
41838;DHT22;27511;52.042;5.178;2022-08-03T03:35:19;23.10;99.90
41838;DHT22;27511;52.042;5.178;2022-08-03T03:37:54;23.00;99.90
41838;DHT22;27511;52.042;5.178;2022-08-03T03:40:20;23.00;99.90
41838;DHT22;27511;52.042;5.178;2022-08-03T03:42:46;23.00;99.90
41838;DHT22;27511;52.042;5.178;2022-08-03T03:45:12;23.00;99.90
41838;DHT22;27511;52.042;5.178;2022-08-03T03:47:37;23.00;99.90
41838;DHT22;27511;52.042;5.178;2022-08-03T03:50:04;23.00;99.90
41838;DHT22;27511;52.042;5.178;2022-08-03T03:52:31;22.90;99.90
41838;DHT22;27511;52.042;5.178;2022-08-03T03:54:57;22.90;99.90
41838;DHT22;27511;52.042;5.178;2022-08-03T03:57:23;22.90;99.90
41838;DHT22;27511;52.042;5.178;2022-08-03T03:59:49;22.90;99.90
41838;DHT22;27511;52.042;5.178;2022-08-03T04:02:14;22.90;99.90
41838;DHT22;27511;52.042;5.178;2022-08-03T04:04:40;22.80;99.90
41838;DHT22;27511;52.042;5.178;2022-08-03T04:07:25;22.80;99.90
41838;DHT22;27511;52.042;5.178;2022-08-03T04:10:14;22.80;99.90
41838;DHT22;27511;52.042;5.178;2022-08-03T04:13:01;22.80;99.90
41838;DHT22;27511;52.042;5.178;2022-08-03T04:15:28;22.80;99.90
41838;DHT22;27511;52.042;5.178;2022-08-03T04:17:56;22.70;99.90
41838;DHT22;27511;52.042;5.178;2022-08-03T04:20:27;22.70;99.90
41838;DHT22;27511;52.042;5.178;2022-08-03T04:22:54;22.80;99.90
41838;DHT22;27511;52.042;5.178;2022-08-03T04:25:22;22.70;99.90
41838;DHT22;27511;52.042;5.178;2022-08-03T04:27:49;22.70;99.90
41838;DHT22;27511;52.042;5.178;2022-08-03T04:30:17;22.80;99.90
41838;DHT22;27511;52.042;5.178;2022-08-03T04:32:44;22.80;99.90
41838;DHT22;27511;52.042;5.178;2022-08-03T04:35:15;22.80;99.90
41838;DHT22;27511;52.042;5.178;2022-08-03T04:37:42;22.80;99.90
41838;DHT22;27511;52.042;5.178;2022-08-03T04:40:12;22.80;99.90
41838;DHT22;27511;52.042;5.178;2022-08-03T04:42:39;22.70;99.90
41838;DHT22;27511;52.042;5.178;2022-08-03T04:45:06;22.80;99.90
41838;DHT22;27511;52.042;5.178;2022-08-03T04:47:33;22.90;99.90
41838;DHT22;27511;52.042;5.178;2022-08-03T04:50:01;22.90;99.90
41838;DHT22;27511;52.042;5.178;2022-08-03T04:52:27;22.80;99.90
41838;DHT22;27511;52.042;5.178;2022-08-03T04:54:53;22.80;99.90
41838;DHT22;27511;52.042;5.178;2022-08-03T04:57:18;22.80;99.90
41838;DHT22;27511;52.042;5.178;2022-08-03T04:59:44;22.80;99.90
41838;DHT22;27511;52.042;5.178;2022-08-03T05:02:10;22.60;99.90
41838;DHT22;27511;52.042;5.178;2022-08-03T05:04:35;22.70;99.90
41838;DHT22;27511;52.042;5.178;2022-08-03T05:07:02;22.60;99.90
41838;DHT22;27511;52.042;5.178;2022-08-03T05:09:28;22.70;99.90
41838;DHT22;27511;52.042;5.178;2022-08-03T05:11:53;22.80;99.90
41838;DHT22;27511;52.042;5.178;2022-08-03T05:14:19;22.80;99.90
41838;DHT22;27511;52.042;5.178;2022-08-03T05:16:45;22.80;99.90
41838;DHT22;27511;52.042;5.178;2022-08-03T05:19:10;22.80;99.90
41838;DHT22;27511;52.042;5.178;2022-08-03T05:21:36;22.90;99.90
41838;DHT22;27511;52.042;5.178;2022-08-03T05:24:02;22.90;99.90
41838;DHT22;27511;52.042;5.178;2022-08-03T05:26:27;22.90;99.90
41838;DHT22;27511;52.042;5.178;2022-08-03T05:28:53;23.00;99.90
41838;DHT22;27511;52.042;5.178;2022-08-03T05:31:18;22.90;99.90
41838;DHT22;27511;52.042;5.178;2022-08-03T05:33:44;22.90;99.90
41838;DHT22;27511;52.042;5.178;2022-08-03T05:36:09;22.90;99.90
41838;DHT22;27511;52.042;5.178;2022-08-03T05:38:35;22.90;99.90
41838;DHT22;27511;52.042;5.178;2022-08-03T05:41:02;22.90;99.90
41838;DHT22;27511;52.042;5.178;2022-08-03T05:43:28;22.90;99.90
41838;DHT22;27511;52.042;5.178;2022-08-03T05:45:53;22.90;99.90
41838;DHT22;27511;52.042;5.178;2022-08-03T05:48:19;22.90;99.90
41838;DHT22;27511;52.042;5.178;2022-08-03T05:50:45;22.90;99.90
41838;DHT22;27511;52.042;5.178;2022-08-03T05:53:10;23.00;99.90
41838;DHT22;27511;52.042;5.178;2022-08-03T05:55:36;23.00;99.90
41838;DHT22;27511;52.042;5.178;2022-08-03T05:58:01;23.00;99.90
41838;DHT22;27511;52.042;5.178;2022-08-03T06:00:28;23.00;99.90
41838;DHT22;27511;52.042;5.178;2022-08-03T06:02:53;23.00;99.90
41838;DHT22;27511;52.042;5.178;2022-08-03T06:05:19;23.00;99.90
41838;DHT22;27511;52.042;5.178;2022-08-03T06:07:44;23.00;99.90
41838;DHT22;27511;52.042;5.178;2022-08-03T06:10:11;23.10;99.90
41838;DHT22;27511;52.042;5.178;2022-08-03T06:12:36;23.10;99.90
41838;DHT22;27511;52.042;5.178;2022-08-03T06:15:03;23.20;99.90
41838;DHT22;27511;52.042;5.178;2022-08-03T06:17:29;23.20;99.90
41838;DHT22;27511;52.042;5.178;2022-08-03T06:19:55;23.40;99.90
41838;DHT22;27511;52.042;5.178;2022-08-03T06:22:20;23.40;99.90
41838;DHT22;27511;52.042;5.178;2022-08-03T06:24:46;23.40;99.90
41838;DHT22;27511;52.042;5.178;2022-08-03T06:27:11;23.30;99.90
41838;DHT22;27511;52.042;5.178;2022-08-03T06:29:37;23.30;99.90
41838;DHT22;27511;52.042;5.178;2022-08-03T06:32:03;23.30;99.90
41838;DHT22;27511;52.042;5.178;2022-08-03T06:34:28;23.40;99.90
41838;DHT22;27511;52.042;5.178;2022-08-03T06:36:54;23.40;99.90
41838;DHT22;27511;52.042;5.178;2022-08-03T06:39:20;23.50;99.90
41838;DHT22;27511;52.042;5.178;2022-08-03T06:41:46;23.50;99.90
41838;DHT22;27511;52.042;5.178;2022-08-03T06:44:11;23.50;99.90
41838;DHT22;27511;52.042;5.178;2022-08-03T06:46:37;23.60;99.90
41838;DHT22;27511;52.042;5.178;2022-08-03T06:49:03;23.70;99.90
41838;DHT22;27511;52.042;5.178;2022-08-03T06:51:28;23.80;99.90
41838;DHT22;27511;52.042;5.178;2022-08-03T06:53:54;23.80;99.90
41838;DHT22;27511;52.042;5.178;2022-08-03T06:56:19;23.70;99.90
41838;DHT22;27511;52.042;5.178;2022-08-03T06:58:45;23.60;99.90
41838;DHT22;27511;52.042;5.178;2022-08-03T07:01:11;23.70;99.90
41838;DHT22;27511;52.042;5.178;2022-08-03T07:03:37;23.80;99.90
41838;DHT22;27511;52.042;5.178;2022-08-03T07:06:03;23.70;99.90
41838;DHT22;27511;52.042;5.178;2022-08-03T07:08:28;23.70;99.90
41838;DHT22;27511;52.042;5.178;2022-08-03T07:10:54;23.80;99.90
41838;DHT22;27511;52.042;5.178;2022-08-03T07:13:19;23.90;99.90
41838;DHT22;27511;52.042;5.178;2022-08-03T07:15:45;23.90;99.90
41838;DHT22;27511;52.042;5.178;2022-08-03T07:18:10;23.90;99.90
41838;DHT22;27511;52.042;5.178;2022-08-03T07:20:36;23.90;99.90
41838;DHT22;27511;52.042;5.178;2022-08-03T07:23:01;24.00;99.90
41838;DHT22;27511;52.042;5.178;2022-08-03T07:25:27;23.90;99.90
41838;DHT22;27511;52.042;5.178;2022-08-03T07:27:52;24.00;99.90
41838;DHT22;27511;52.042;5.178;2022-08-03T07:30:18;24.00;99.90
41838;DHT22;27511;52.042;5.178;2022-08-03T07:32:44;24.10;99.90
41838;DHT22;27511;52.042;5.178;2022-08-03T07:35:10;24.00;99.90
41838;DHT22;27511;52.042;5.178;2022-08-03T07:37:36;24.00;99.90
41838;DHT22;27511;52.042;5.178;2022-08-03T07:40:03;23.90;99.90
41838;DHT22;27511;52.042;5.178;2022-08-03T07:42:30;23.90;99.90
41838;DHT22;27511;52.042;5.178;2022-08-03T07:44:55;23.90;99.90
41838;DHT22;27511;52.042;5.178;2022-08-03T07:47:30;24.10;99.90
41838;DHT22;27511;52.042;5.178;2022-08-03T07:49:55;24.20;99.90
41838;DHT22;27511;52.042;5.178;2022-08-03T07:52:21;24.10;99.90
41838;DHT22;27511;52.042;5.178;2022-08-03T07:55:06;24.10;99.90
41838;DHT22;27511;52.042;5.178;2022-08-03T07:57:32;24.20;99.90
41838;DHT22;27511;52.042;5.178;2022-08-03T07:59:57;24.40;99.90
41838;DHT22;27511;52.042;5.178;2022-08-03T08:02:23;24.50;99.90
41838;DHT22;27511;52.042;5.178;2022-08-03T08:04:49;24.50;99.90
41838;DHT22;27511;52.042;5.178;2022-08-03T08:07:14;24.70;99.90
41838;DHT22;27511;52.042;5.178;2022-08-03T08:09:40;24.70;99.90
41838;DHT22;27511;52.042;5.178;2022-08-03T08:12:06;24.70;99.90
41838;DHT22;27511;52.042;5.178;2022-08-03T08:14:33;24.60;99.90
41838;DHT22;27511;52.042;5.178;2022-08-03T08:16:59;24.80;99.90
41838;DHT22;27511;52.042;5.178;2022-08-03T08:19:24;24.90;99.90
41838;DHT22;27511;52.042;5.178;2022-08-03T08:21:50;24.90;99.90
41838;DHT22;27511;52.042;5.178;2022-08-03T08:24:15;24.70;99.90
41838;DHT22;27511;52.042;5.178;2022-08-03T08:26:41;24.90;99.90
41838;DHT22;27511;52.042;5.178;2022-08-03T08:29:06;25.00;99.90
41838;DHT22;27511;52.042;5.178;2022-08-03T08:31:32;24.90;99.90
41838;DHT22;27511;52.042;5.178;2022-08-03T08:33:57;25.00;99.90
41838;DHT22;27511;52.042;5.178;2022-08-03T08:36:23;25.10;99.90
41838;DHT22;27511;52.042;5.178;2022-08-03T08:38:49;25.10;99.90
41838;DHT22;27511;52.042;5.178;2022-08-03T08:41:14;25.10;99.90
41838;DHT22;27511;52.042;5.178;2022-08-03T08:43:41;25.30;99.90
41838;DHT22;27511;52.042;5.178;2022-08-03T08:46:11;25.40;99.90
41838;DHT22;27511;52.042;5.178;2022-08-03T08:48:43;25.30;99.90
41838;DHT22;27511;52.042;5.178;2022-08-03T08:51:10;25.30;99.90
41838;DHT22;27511;52.042;5.178;2022-08-03T08:53:36;25.40;99.90
41838;DHT22;27511;52.042;5.178;2022-08-03T08:56:06;25.40;99.90
41838;DHT22;27511;52.042;5.178;2022-08-03T08:58:36;25.50;99.90
41838;DHT22;27511;52.042;5.178;2022-08-03T09:01:02;25.60;99.90
41838;DHT22;27511;52.042;5.178;2022-08-03T09:03:28;25.60;99.90
41838;DHT22;27511;52.042;5.178;2022-08-03T09:05:54;25.70;99.90
41838;DHT22;27511;52.042;5.178;2022-08-03T09:08:20;25.70;99.90
41838;DHT22;27511;52.042;5.178;2022-08-03T09:10:47;25.70;99.90
41838;DHT22;27511;52.042;5.178;2022-08-03T09:13:13;25.70;99.90
41838;DHT22;27511;52.042;5.178;2022-08-03T09:15:38;25.90;99.90
41838;DHT22;27511;52.042;5.178;2022-08-03T09:18:04;26.00;99.90
41838;DHT22;27511;52.042;5.178;2022-08-03T09:20:32;26.00;99.90
41838;DHT22;27511;52.042;5.178;2022-08-03T09:23:06;26.00;99.90
41838;DHT22;27511;52.042;5.178;2022-08-03T09:25:42;25.90;99.90
41838;DHT22;27511;52.042;5.178;2022-08-03T09:28:09;26.00;99.90
41838;DHT22;27511;52.042;5.178;2022-08-03T09:30:36;26.20;99.90
41838;DHT22;27511;52.042;5.178;2022-08-03T09:33:07;26.30;99.90
41838;DHT22;27511;52.042;5.178;2022-08-03T09:35:43;26.30;99.90
41838;DHT22;27511;52.042;5.178;2022-08-03T09:38:13;26.40;99.90
41838;DHT22;27511;52.042;5.178;2022-08-03T09:40:39;26.40;99.90
41838;DHT22;27511;52.042;5.178;2022-08-03T09:43:06;26.40;99.90
41838;DHT22;27511;52.042;5.178;2022-08-03T09:45:35;26.50;99.90
41838;DHT22;27511;52.042;5.178;2022-08-03T09:50:52;26.70;99.90
41838;DHT22;27511;52.042;5.178;2022-08-03T09:53:18;26.80;99.90
41838;DHT22;27511;52.042;5.178;2022-08-03T09:55:54;26.80;99.90
41838;DHT22;27511;52.042;5.178;2022-08-03T09:58:21;26.80;99.90
41838;DHT22;27511;52.042;5.178;2022-08-03T10:03:22;26.90;99.90
41838;DHT22;27511;52.042;5.178;2022-08-03T10:05:48;26.80;99.90
41838;DHT22;27511;52.042;5.178;2022-08-03T10:08:15;26.90;99.90
41838;DHT22;27511;52.042;5.178;2022-08-03T10:10:42;27.00;99.90
41838;DHT22;27511;52.042;5.178;2022-08-03T10:13:12;27.10;99.90
41838;DHT22;27511;52.042;5.178;2022-08-03T10:15:39;27.20;99.90
41838;DHT22;27511;52.042;5.178;2022-08-03T10:18:05;27.40;99.90
41838;DHT22;27511;52.042;5.178;2022-08-03T10:20:35;27.40;99.90
41838;DHT22;27511;52.042;5.178;2022-08-03T10:23:01;27.50;99.90
41838;DHT22;27511;52.042;5.178;2022-08-03T10:25:29;27.50;99.90
41838;DHT22;27511;52.042;5.178;2022-08-03T10:27:55;27.60;99.90
41838;DHT22;27511;52.042;5.178;2022-08-03T10:30:26;27.40;99.90
41838;DHT22;27511;52.042;5.178;2022-08-03T10:33:02;27.60;99.90
41838;DHT22;27511;52.042;5.178;2022-08-03T10:35:29;27.80;99.90
41838;DHT22;27511;52.042;5.178;2022-08-03T10:38:02;28.00;99.90
41838;DHT22;27511;52.042;5.178;2022-08-03T10:40:33;28.00;99.90
41838;DHT22;27511;52.042;5.178;2022-08-03T10:43:07;28.00;99.90
41838;DHT22;27511;52.042;5.178;2022-08-03T10:45:35;28.00;99.90
41838;DHT22;27511;52.042;5.178;2022-08-03T10:48:04;28.20;99.90
41838;DHT22;27511;52.042;5.178;2022-08-03T10:50:29;28.20;99.90
41838;DHT22;27511;52.042;5.178;2022-08-03T10:53:03;28.30;99.90
41838;DHT22;27511;52.042;5.178;2022-08-03T10:55:44;28.30;99.90
41838;DHT22;27511;52.042;5.178;2022-08-03T11:01:04;28.40;99.90
41838;DHT22;27511;52.042;5.178;2022-08-03T11:03:30;28.30;99.90
41838;DHT22;27511;52.042;5.178;2022-08-03T11:06:17;28.40;99.90
41838;DHT22;27511;52.042;5.178;2022-08-03T11:08:47;28.40;99.90
41838;DHT22;27511;52.042;5.178;2022-08-03T11:14:06;28.60;99.90
41838;DHT22;27511;52.042;5.178;2022-08-03T11:16:47;28.60;99.90
41838;DHT22;27511;52.042;5.178;2022-08-03T11:19:19;28.70;99.90
41838;DHT22;27511;52.042;5.178;2022-08-03T11:21:51;28.80;99.90
41838;DHT22;27511;52.042;5.178;2022-08-03T11:43:02;29.30;99.90
41838;DHT22;27511;52.042;5.178;2022-08-03T11:45:28;29.20;99.90
41838;DHT22;27511;52.042;5.178;2022-08-03T11:47:54;29.10;99.90
41838;DHT22;27511;52.042;5.178;2022-08-03T11:50:20;29.20;99.90
41838;DHT22;27511;52.042;5.178;2022-08-03T11:52:47;29.40;99.90
41838;DHT22;27511;52.042;5.178;2022-08-03T11:55:15;29.40;99.90
41838;DHT22;27511;52.042;5.178;2022-08-03T11:57:42;29.60;99.90
41838;DHT22;27511;52.042;5.178;2022-08-03T12:00:31;29.70;99.90
41838;DHT22;27511;52.042;5.178;2022-08-03T12:05:53;30.00;99.90
41838;DHT22;27511;52.042;5.178;2022-08-03T12:08:29;30.00;99.90
41838;DHT22;27511;52.042;5.178;2022-08-03T12:10:57;30.10;99.90
41838;DHT22;27511;52.042;5.178;2022-08-03T12:13:23;30.20;99.90
41838;DHT22;27511;52.042;5.178;2022-08-03T12:15:52;30.30;99.90
41838;DHT22;27511;52.042;5.178;2022-08-03T12:18:19;30.30;99.90
41838;DHT22;27511;52.042;5.178;2022-08-03T12:20:46;30.50;99.90
41838;DHT22;27511;52.042;5.178;2022-08-03T12:23:12;30.60;99.90
41838;DHT22;27511;52.042;5.178;2022-08-03T12:25:40;30.60;99.90
41838;DHT22;27511;52.042;5.178;2022-08-03T12:28:25;30.60;99.90
41838;DHT22;27511;52.042;5.178;2022-08-03T12:30:51;30.70;99.90
41838;DHT22;27511;52.042;5.178;2022-08-03T12:33:20;30.70;99.90
41838;DHT22;27511;52.042;5.178;2022-08-03T12:35:48;30.70;99.90
41838;DHT22;27511;52.042;5.178;2022-08-03T12:38:19;30.70;99.90
41838;DHT22;27511;52.042;5.178;2022-08-03T12:40:57;30.90;99.90
41838;DHT22;27511;52.042;5.178;2022-08-03T12:43:24;31.10;99.90
41838;DHT22;27511;52.042;5.178;2022-08-03T12:45:50;31.20;99.90
41838;DHT22;27511;52.042;5.178;2022-08-03T12:48:15;31.30;99.90
41838;DHT22;27511;52.042;5.178;2022-08-03T12:50:41;31.50;99.90
41838;DHT22;27511;52.042;5.178;2022-08-03T12:53:08;31.60;99.90
41838;DHT22;27511;52.042;5.178;2022-08-03T12:55:35;31.60;99.90
41838;DHT22;27511;52.042;5.178;2022-08-03T12:58:06;31.40;99.90
41838;DHT22;27511;52.042;5.178;2022-08-03T13:00:34;31.30;99.90
41838;DHT22;27511;52.042;5.178;2022-08-03T13:03:06;31.40;99.90
41838;DHT22;27511;52.042;5.178;2022-08-03T13:05:42;31.50;99.90
41838;DHT22;27511;52.042;5.178;2022-08-03T13:08:19;31.70;99.90
41838;DHT22;27511;52.042;5.178;2022-08-03T13:10:45;31.90;99.90
41838;DHT22;27511;52.042;5.178;2022-08-03T13:13:10;32.00;99.90
41838;DHT22;27511;52.042;5.178;2022-08-03T13:15:36;32.10;99.90
41838;DHT22;27511;52.042;5.178;2022-08-03T13:18:01;32.00;99.90
41838;DHT22;27511;52.042;5.178;2022-08-03T13:20:27;32.10;99.90
41838;DHT22;27511;52.042;5.178;2022-08-03T13:22:53;32.10;99.90
41838;DHT22;27511;52.042;5.178;2022-08-03T13:25:18;32.00;99.90
41838;DHT22;27511;52.042;5.178;2022-08-03T13:27:45;32.20;99.90
41838;DHT22;27511;52.042;5.178;2022-08-03T13:30:10;32.20;99.90
41838;DHT22;27511;52.042;5.178;2022-08-03T13:32:36;32.40;99.90
41838;DHT22;27511;52.042;5.178;2022-08-03T13:35:02;32.60;99.90
41838;DHT22;27511;52.042;5.178;2022-08-03T13:37:29;32.60;99.90
41838;DHT22;27511;52.042;5.178;2022-08-03T13:39:56;32.90;99.90
41838;DHT22;27511;52.042;5.178;2022-08-03T13:42:22;33.00;99.90
41838;DHT22;27511;52.042;5.178;2022-08-03T13:44:48;33.00;99.90
41838;DHT22;27511;52.042;5.178;2022-08-03T13:47:13;33.00;99.90
41838;DHT22;27511;52.042;5.178;2022-08-03T13:49:39;32.90;99.90
41838;DHT22;27511;52.042;5.178;2022-08-03T13:52:05;32.90;99.90
41838;DHT22;27511;52.042;5.178;2022-08-03T13:54:30;32.90;99.90
41838;DHT22;27511;52.042;5.178;2022-08-03T13:56:58;32.90;99.90
41838;DHT22;27511;52.042;5.178;2022-08-03T13:59:24;33.10;99.90
41838;DHT22;27511;52.042;5.178;2022-08-03T14:01:51;33.20;99.90
41838;DHT22;27511;52.042;5.178;2022-08-03T14:04:17;33.50;99.90
41838;DHT22;27511;52.042;5.178;2022-08-03T14:06:43;33.60;99.90
41838;DHT22;27511;52.042;5.178;2022-08-03T14:09:12;33.80;99.90
41838;DHT22;27511;52.042;5.178;2022-08-03T14:11:39;33.80;99.90
41838;DHT22;27511;52.042;5.178;2022-08-03T14:14:05;33.90;99.90
41838;DHT22;27511;52.042;5.178;2022-08-03T14:16:34;33.80;99.90
41838;DHT22;27511;52.042;5.178;2022-08-03T14:19:02;33.60;99.90
41838;DHT22;27511;52.042;5.178;2022-08-03T14:21:28;33.40;99.90
41838;DHT22;27511;52.042;5.178;2022-08-03T14:23:53;33.20;99.90
41838;DHT22;27511;52.042;5.178;2022-08-03T14:26:19;33.20;99.90
41838;DHT22;27511;52.042;5.178;2022-08-03T14:28:45;33.30;99.90
41838;DHT22;27511;52.042;5.178;2022-08-03T14:31:11;33.60;99.90
41838;DHT22;27511;52.042;5.178;2022-08-03T14:33:37;33.70;99.90
41838;DHT22;27511;52.042;5.178;2022-08-03T14:36:03;33.80;99.90
41838;DHT22;27511;52.042;5.178;2022-08-03T14:38:28;33.70;99.90
41838;DHT22;27511;52.042;5.178;2022-08-03T14:40:54;33.50;99.90
41838;DHT22;27511;52.042;5.178;2022-08-03T14:43:20;33.50;99.90
41838;DHT22;27511;52.042;5.178;2022-08-03T14:45:46;33.40;99.90
41838;DHT22;27511;52.042;5.178;2022-08-03T14:48:12;33.40;99.90
41838;DHT22;27511;52.042;5.178;2022-08-03T14:50:38;33.40;99.90
41838;DHT22;27511;52.042;5.178;2022-08-03T14:53:04;33.50;99.90
41838;DHT22;27511;52.042;5.178;2022-08-03T14:55:29;33.60;99.90
41838;DHT22;27511;52.042;5.178;2022-08-03T14:57:55;33.70;99.90
41838;DHT22;27511;52.042;5.178;2022-08-03T15:00:20;33.70;99.90
41838;DHT22;27511;52.042;5.178;2022-08-03T15:02:46;33.70;99.90
41838;DHT22;27511;52.042;5.178;2022-08-03T15:05:11;33.50;99.90
41838;DHT22;27511;52.042;5.178;2022-08-03T15:07:39;33.60;99.90
41838;DHT22;27511;52.042;5.178;2022-08-03T15:10:05;33.60;99.90
41838;DHT22;27511;52.042;5.178;2022-08-03T15:12:30;33.50;99.90
41838;DHT22;27511;52.042;5.178;2022-08-03T15:14:56;33.60;99.90
41838;DHT22;27511;52.042;5.178;2022-08-03T15:17:22;33.50;99.90
41838;DHT22;27511;52.042;5.178;2022-08-03T15:19:47;33.70;99.90
41838;DHT22;27511;52.042;5.178;2022-08-03T15:22:13;33.80;99.90
41838;DHT22;27511;52.042;5.178;2022-08-03T15:24:41;34.00;99.90
41838;DHT22;27511;52.042;5.178;2022-08-03T15:27:06;34.00;99.90
41838;DHT22;27511;52.042;5.178;2022-08-03T15:29:32;34.20;99.90
41838;DHT22;27511;52.042;5.178;2022-08-03T15:31:58;34.40;99.90
41838;DHT22;27511;52.042;5.178;2022-08-03T15:34:23;34.80;99.90
41838;DHT22;27511;52.042;5.178;2022-08-03T15:36:49;35.10;99.90
41838;DHT22;27511;52.042;5.178;2022-08-03T15:39:14;35.60;99.90
41838;DHT22;27511;52.042;5.178;2022-08-03T15:41:40;36.20;99.90
41838;DHT22;27511;52.042;5.178;2022-08-03T15:44:05;36.90;99.90
41838;DHT22;27511;52.042;5.178;2022-08-03T15:46:31;37.80;99.90
41838;DHT22;27511;52.042;5.178;2022-08-03T15:48:57;38.20;99.90
41838;DHT22;27511;52.042;5.178;2022-08-03T15:51:22;38.10;99.90
41838;DHT22;27511;52.042;5.178;2022-08-03T15:53:48;37.60;99.90
41838;DHT22;27511;52.042;5.178;2022-08-03T15:56:13;37.50;99.90
41838;DHT22;27511;52.042;5.178;2022-08-03T15:58:39;37.60;99.90
41838;DHT22;27511;52.042;5.178;2022-08-03T16:01:05;37.80;99.90
41838;DHT22;27511;52.042;5.178;2022-08-03T16:03:31;38.30;99.90
41838;DHT22;27511;52.042;5.178;2022-08-03T16:06:05;39.40;99.90
41838;DHT22;27511;52.042;5.178;2022-08-03T16:08:31;40.20;99.90
41838;DHT22;27511;52.042;5.178;2022-08-03T16:10:57;41.20;99.90
41838;DHT22;27511;52.042;5.178;2022-08-03T16:13:26;41.20;99.90
41838;DHT22;27511;52.042;5.178;2022-08-03T16:15:53;41.30;99.90
41838;DHT22;27511;52.042;5.178;2022-08-03T16:18:19;41.30;99.90
41838;DHT22;27511;52.042;5.178;2022-08-03T16:20:44;41.20;99.90